Decoded Metar for LHPA (PAPA in HUNGARY) (IATA:N/A) | Meteo·Mobile Aviation Weather
aviador You're here:

LHPA Decoded Metar

PAPA in HUNGARY
Report Time2019-08-23 08:15:00
UTC Time2019-08-23 08:42:58
Flight Rules vfr VFR
Wind010° at 04 kt
Visibility9999 m
Phenomena:N/A
Clouds:N/A
Expected CloudBase > 2,000 ft AGL from Temp-Dew spread
CeilingNone
Temp23°C (ISA +9)
Dew Point18°C (74% RH)
QNH1025 hPa
Density Alt1,401 ft
Elevation486 ft
Report Wrong Elevation
Raw Report
METAR LHPA 230815Z 01004KT CAVOK 23/18 Q1025 NOSIG RMK BLU=

Extra information for LHPA:More info

Metar Taf Metar & Taf Last 4 Metars F.Rules Stats Wind Profile Meteogram Temp Stats Airport Information Weather charts Add Link Nearby VenuesMetar ALERT Operation Metar Decoded Social comments